createdAt,value
2018-04-10T00:01:08.633Z,1004.47
2018-04-10T00:02:17.469Z,1004.44
2018-04-10T00:03:26.303Z,1004.45
2018-04-10T00:04:35.138Z,1004.4
2018-04-10T00:05:43.973Z,1004.42
2018-04-10T00:06:52.860Z,1004.39
2018-04-10T00:08:01.699Z,1004.41
2018-04-10T00:09:11.087Z,1004.41
2018-04-10T00:10:19.923Z,1004.44
2018-04-10T00:11:28.760Z,1004.43
2018-04-10T00:12:37.595Z,1004.42
2018-04-10T00:13:46.428Z,1004.4
2018-04-10T00:14:55.272Z,1004.38
2018-04-10T00:16:04.101Z,1004.37
2018-04-10T00:17:12.936Z,1004.31
2018-04-10T00:18:21.772Z,1004.29
2018-04-10T00:19:30.885Z,1004.21
2018-04-10T00:20:39.994Z,1004.24
2018-04-10T00:21:48.828Z,1004.25
2018-04-10T00:22:58.663Z,1004.22
2018-04-10T00:24:07.748Z,1004.3
2018-04-10T00:25:16.584Z,1004.34
2018-04-10T00:26:25.418Z,1004.29
2018-04-10T00:27:34.251Z,1004.16
2018-04-10T00:28:43.083Z,1004.15
2018-04-10T00:29:51.929Z,1004.16
2018-04-10T00:31:01.038Z,1004.16
2018-04-10T00:32:09.873Z,1004.12
2018-04-10T00:33:18.706Z,1004.14
2018-04-10T00:34:27.540Z,1004.1
2018-04-10T00:35:36.373Z,1004.09
2018-04-10T00:36:45.208Z,1004.08
2018-04-10T00:37:54.043Z,1004.13
2018-04-10T00:39:02.877Z,1004.1
2018-04-10T00:40:11.710Z,1004.04
2018-04-10T00:41:20.542Z,1004.1
2018-04-10T00:42:29.375Z,1004.05
2018-04-10T00:43:38.207Z,1004.08
2018-04-10T00:44:47.042Z,1004.09
2018-04-10T00:45:55.875Z,1004.1
2018-04-10T00:47:04.756Z,1004.07
2018-04-10T00:48:13.593Z,1004.07
2018-04-10T00:49:22.428Z,1004.06
2018-04-10T00:50:31.262Z,1004.08
2018-04-10T00:51:40.377Z,1004.08
2018-04-10T00:52:49.463Z,1004.07
2018-04-10T00:53:58.296Z,1004.04
2018-04-10T00:55:07.131Z,1004.12
2018-04-10T00:56:15.966Z,1004.09
2018-04-10T00:57:25.076Z,1004.12
2018-04-10T00:58:34.285Z,1004.09
2018-04-10T00:59:43.400Z,1004.06
2018-04-10T01:00:52.508Z,1004.07
2018-04-10T01:02:01.617Z,1004.11
2018-04-10T01:03:10.450Z,1004.13
2018-04-10T01:04:19.337Z,1004.12
2018-04-10T01:05:28.173Z,1004.13
2018-04-10T01:06:37.010Z,1004.08
2018-04-10T01:07:46.120Z,1004.06
2018-04-10T01:08:54.955Z,1004.03
2018-04-10T01:10:03.842Z,1004.03
2018-04-10T01:11:12.674Z,1004.06
2018-04-10T01:12:21.509Z,1004.1
2018-04-10T01:13:30.343Z,1004.03
2018-04-10T01:14:39.177Z,1004.07
2018-04-10T01:15:48.012Z,1004.06
2018-04-10T01:16:56.845Z,1004.04
2018-04-10T01:18:05.677Z,1004.06
2018-04-10T01:19:14.512Z,1004.08
2018-04-10T01:20:23.348Z,1004.06
2018-04-10T01:21:32.282Z,1004.03
2018-04-10T01:22:41.117Z,1004.07
2018-04-10T01:23:49.949Z,1004.04
2018-04-10T01:24:58.782Z,1004.07
2018-04-10T01:26:08.166Z,1004.04
2018-04-10T01:27:17.050Z,1004.02
2018-04-10T01:28:25.889Z,1004.01
2018-04-10T01:29:34.991Z,1004.02
2018-04-10T01:30:43.827Z,1004.02
2018-04-10T01:31:52.661Z,1004.01
2018-04-10T01:33:01.645Z,1004.05
2018-04-10T01:34:10.481Z,1004.03
2018-04-10T01:35:19.315Z,1004.08
2018-04-10T01:36:28.149Z,1004.05
2018-04-10T01:37:36.980Z,1004.04
2018-04-10T01:38:45.814Z,1004.01
2018-04-10T01:39:54.650Z,1004.04
2018-04-10T01:41:03.483Z,1004.07
2018-04-10T01:42:12.318Z,1004.01
2018-04-10T01:43:21.154Z,1004.02
2018-04-10T01:44:30.265Z,1004.05
2018-04-10T01:45:39.101Z,1004.08
2018-04-10T01:46:47.934Z,1004.01
2018-04-10T01:47:57.045Z,1004.05
2018-04-10T01:49:05.879Z,1004.08
2018-04-10T01:50:14.812Z,1004.03
2018-04-10T01:51:23.647Z,1004.09
2018-04-10T01:52:32.755Z,1004.03
2018-04-10T01:53:41.587Z,1004.02
2018-04-10T01:54:50.697Z,1004.01
2018-04-10T01:55:59.630Z,1004.01
2018-04-10T01:57:08.464Z,1004.02
2018-04-10T01:58:17.299Z,1004.04
2018-04-10T01:59:26.132Z,1004.07
2018-04-10T02:00:34.982Z,1004.09
2018-04-10T02:01:44.179Z,1004.07
2018-04-10T02:02:53.013Z,1004.06
2018-04-10T02:04:01.854Z,1004.07
2018-04-10T02:05:10.959Z,1004.05
2018-04-10T02:06:19.794Z,1004.07
2018-04-10T02:07:28.628Z,1004.05
2018-04-10T02:08:37.462Z,1004.04
2018-04-10T02:09:46.294Z,1004.04
2018-04-10T02:10:55.128Z,1004.05
2018-04-10T02:12:03.962Z,1004.06
2018-04-10T02:13:12.946Z,1004.04
2018-04-10T02:14:22.055Z,1004.02
2018-04-10T02:15:31.166Z,1004.02
2018-04-10T02:16:40.001Z,1004
2018-04-10T02:17:48.838Z,1004.01
2018-04-10T02:18:57.822Z,1004
2018-04-10T02:20:06.935Z,1004.03
2018-04-10T02:21:15.771Z,1004.07
2018-04-10T02:22:24.607Z,1004.06
2018-04-10T02:23:33.717Z,1004.05
2018-04-10T02:24:42.559Z,1004.03
2018-04-10T02:25:51.386Z,1004.05
2018-04-10T02:27:00.222Z,1004.04
2018-04-10T02:28:09.054Z,1004.07
2018-04-10T02:29:17.888Z,1004.05
2018-04-10T02:30:26.777Z,1004.1
2018-04-10T02:31:35.613Z,1004.04
2018-04-10T02:32:44.728Z,1004.06
2018-04-10T02:33:53.565Z,1004.05
2018-04-10T02:35:02.684Z,1004.06
2018-04-10T02:36:12.175Z,1004.07
2018-04-10T02:37:21.013Z,1004.08
2018-04-10T02:38:29.855Z,1004.05
2018-04-10T02:39:38.978Z,1004.06
2018-04-10T02:40:47.823Z,1004.06
2018-04-10T02:41:56.809Z,1004.1
2018-04-10T02:43:05.648Z,1004.1
2018-04-10T02:44:14.483Z,1004.12
2018-04-10T02:45:23.317Z,1004.08
2018-04-10T02:46:32.152Z,1004.15
2018-04-10T02:47:41.193Z,1004.1
2018-04-10T02:48:50.034Z,1004.13
2018-04-10T02:49:59.148Z,1004.18
2018-04-10T02:51:07.983Z,1004.17
2018-04-10T02:52:16.824Z,1004.17
2018-04-10T02:53:25.664Z,1004.21
2018-04-10T02:54:34.498Z,1004.19
2018-04-10T02:55:43.607Z,1004.14
2018-04-10T02:56:52.442Z,1004.16
2018-04-10T02:58:01.279Z,1004.21
2018-04-10T02:59:10.534Z,1004.2
2018-04-10T03:00:19.367Z,1004.19
2018-04-10T03:01:28.484Z,1004.2
2018-04-10T03:02:37.314Z,1004.18
2018-04-10T03:03:46.156Z,1004.24
2018-04-10T03:04:55.265Z,1004.24
2018-04-10T03:06:04.099Z,1004.27
2018-04-10T03:07:12.937Z,1004.26
2018-04-10T03:08:21.773Z,1004.27
2018-04-10T03:09:30.608Z,1004.24
2018-04-10T03:10:39.442Z,1004.24
2018-04-10T03:11:48.276Z,1004.26
2018-04-10T03:12:57.111Z,1004.22
2018-04-10T03:14:05.945Z,1004.25
2018-04-10T03:15:14.778Z,1004.17
2018-04-10T03:16:23.611Z,1004.22
2018-04-10T03:17:32.445Z,1004.17
2018-04-10T03:18:41.280Z,1004.21
2018-04-10T03:19:50.113Z,1004.19
2018-04-10T03:20:58.949Z,1004.17
2018-04-10T03:22:07.933Z,1004.15
2018-04-10T03:23:16.766Z,1004.15
2018-04-10T03:24:25.874Z,1004.19
2018-04-10T03:25:34.708Z,1004.18
2018-04-10T03:26:43.543Z,1004.16
2018-04-10T03:27:52.477Z,1004.16
2018-04-10T03:29:01.313Z,1004.16
2018-04-10T03:30:10.149Z,1004.14
2018-04-10T03:31:18.987Z,1004.19
2018-04-10T03:32:28.094Z,1004.17
2018-04-10T03:33:36.932Z,1004.17
2018-04-10T03:34:45.767Z,1004.11
2018-04-10T03:35:55.144Z,1004.11
2018-04-10T03:37:04.272Z,1004.11
2018-04-10T03:38:13.380Z,1004.13
2018-04-10T03:39:22.418Z,1004.09
2018-04-10T03:40:31.251Z,1004.14
2018-04-10T03:41:40.085Z,1004.15
2018-04-10T03:42:49.193Z,1004.15
2018-04-10T03:43:58.299Z,1004.14
2018-04-10T03:45:07.233Z,1004.16
2018-04-10T03:46:16.074Z,1004.16
2018-04-10T03:47:24.908Z,1004.14
2018-04-10T03:48:33.745Z,1004.13
2018-04-10T03:49:42.574Z,1004.12
2018-04-10T03:50:51.509Z,1004.14
2018-04-10T03:52:00.617Z,1004.18
2018-04-10T03:53:09.456Z,1004.1
2018-04-10T03:54:18.576Z,1004.18
2018-04-10T03:55:27.412Z,1004.14
2018-04-10T03:56:36.399Z,1004.18
2018-04-10T03:57:45.232Z,1004.17
2018-04-10T03:58:54.069Z,1004.16
2018-04-10T04:00:02.904Z,1004.21
2018-04-10T04:01:11.736Z,1004.14
2018-04-10T04:02:20.571Z,1004.17
2018-04-10T04:03:29.404Z,1004.17
2018-04-10T04:04:38.238Z,1004.18
2018-04-10T04:05:47.071Z,1004.21
2018-04-10T04:06:55.907Z,1004.14
2018-04-10T04:08:05.068Z,1004.18
2018-04-10T04:09:13.903Z,1004.17
2018-04-10T04:10:22.738Z,1004.22
2018-04-10T04:11:31.853Z,1004.21
2018-04-10T04:12:40.690Z,1004.22
2018-04-10T04:13:49.626Z,1004.21
2018-04-10T04:14:58.458Z,1004.19
2018-04-10T04:16:07.329Z,1004.15
2018-04-10T04:17:16.126Z,1004.2
2018-04-10T04:18:24.959Z,1004.21
2018-04-10T04:19:33.790Z,1004.21
2018-04-10T04:20:42.623Z,1004.27
2018-04-10T04:21:51.456Z,1004.25
2018-04-10T04:23:00.291Z,1004.28
2018-04-10T04:24:09.124Z,1004.27
2018-04-10T04:25:18.009Z,1004.33
2018-04-10T04:26:26.840Z,1004.3
2018-04-10T04:27:35.673Z,1004.31
2018-04-10T04:28:44.509Z,1004.33
2018-04-10T04:29:53.337Z,1004.31
2018-04-10T04:31:02.276Z,1004.34
2018-04-10T04:32:11.110Z,1004.31
2018-04-10T04:33:19.945Z,1004.33
2018-04-10T04:34:28.779Z,1004.36
2018-04-10T04:35:37.614Z,1004.32
2018-04-10T04:36:46.500Z,1004.36
2018-04-10T04:37:55.338Z,1004.37
2018-04-10T04:39:04.169Z,1004.39
2018-04-10T04:40:13.002Z,1004.42
2018-04-10T04:41:21.836Z,1004.44
2018-04-10T04:42:30.921Z,1004.44
2018-04-10T04:43:40.035Z,1004.48
2018-04-10T04:44:48.867Z,1004.5
2018-04-10T04:45:57.702Z,1004.45
2018-04-10T04:47:06.535Z,1004.45
2018-04-10T04:48:15.469Z,1004.46
2018-04-10T04:49:24.576Z,1004.42
2018-04-10T04:50:33.680Z,1004.47
2018-04-10T04:51:42.512Z,1004.47
2018-04-10T04:52:51.348Z,1004.53
2018-04-10T04:54:00.381Z,1004.52
2018-04-10T04:55:41.272Z,1004.54
2018-04-10T04:56:50.116Z,1004.55
2018-04-10T04:57:59.231Z,1004.62
2018-04-10T04:59:08.268Z,1004.61
2018-04-10T05:00:17.106Z,1004.63
2018-04-10T05:01:25.988Z,1004.66
2018-04-10T05:02:35.094Z,1004.62
2018-04-10T05:03:43.926Z,1004.66
2018-04-10T05:04:53.038Z,1004.62
2018-04-10T05:06:01.869Z,1004.64
2018-04-10T05:07:10.705Z,1004.57
2018-04-10T05:08:19.813Z,1004.6
2018-04-10T05:09:28.648Z,1004.62
2018-04-10T05:10:37.482Z,1004.61
2018-04-10T05:11:46.321Z,1004.64
2018-04-10T05:12:55.432Z,1004.61
2018-04-10T05:14:04.267Z,1004.62
2018-04-10T05:15:13.102Z,1004.64
2018-04-10T05:16:21.935Z,1004.69
2018-04-10T05:17:30.772Z,1004.66
2018-04-10T05:18:39.606Z,1004.7
2018-04-10T05:19:48.440Z,1004.69
2018-04-10T05:20:57.275Z,1004.73
2018-04-10T05:22:06.110Z,1004.76
2018-04-10T05:23:14.945Z,1004.78
2018-04-10T05:24:23.785Z,1004.77
2018-04-10T05:25:32.620Z,1004.76
2018-04-10T05:26:41.454Z,1004.76
2018-04-10T05:27:50.289Z,1004.78
2018-04-10T05:28:59.123Z,1004.71
2018-04-10T05:30:07.960Z,1004.76
2018-04-10T05:31:16.845Z,1004.76
2018-04-10T05:32:25.680Z,1004.77
2018-04-10T05:33:34.787Z,1004.74
2018-04-10T05:34:43.619Z,1004.78
2018-04-10T05:35:52.455Z,1004.77
2018-04-10T05:37:01.715Z,1004.77
2018-04-10T05:38:10.550Z,1004.79
2018-04-10T05:39:19.385Z,1004.81
2018-04-10T05:40:28.217Z,1004.81
2018-04-10T05:41:37.053Z,1004.78
2018-04-10T05:42:45.987Z,1004.78
2018-04-10T05:43:54.871Z,1004.77
2018-04-10T05:45:03.729Z,1004.78
2018-04-10T05:46:12.567Z,1004.75
2018-04-10T05:47:21.403Z,1004.8
2018-04-10T05:48:30.238Z,1004.78
2018-04-10T05:49:39.073Z,1004.84
2018-04-10T05:50:47.909Z,1004.87
2018-04-10T05:51:56.739Z,1004.85
2018-04-10T05:53:05.637Z,1004.86
2018-04-10T05:54:14.747Z,1004.86
2018-04-10T05:55:23.581Z,1004.89
2018-04-10T05:56:32.693Z,1004.89
2018-04-10T05:57:41.807Z,1004.9
2018-04-10T05:58:50.640Z,1004.9
2018-04-10T05:59:59.622Z,1004.85
2018-04-10T06:01:08.455Z,1004.93
2018-04-10T06:02:17.292Z,1004.88
2018-04-10T06:03:26.129Z,1004.96
2018-04-10T06:04:34.955Z,1004.98
2018-04-10T06:05:43.989Z,1004.97
2018-04-10T06:06:52.827Z,1005.01
2018-04-10T06:08:01.661Z,1005
2018-04-10T06:09:10.495Z,1005.01
2018-04-10T06:10:19.329Z,1005
2018-04-10T06:11:28.215Z,1005.02
2018-04-10T06:12:37.049Z,1005.05
2018-04-10T06:13:45.883Z,1005.02
2018-04-10T06:14:54.726Z,1005.03
2018-04-10T06:16:03.840Z,1005.03
2018-04-10T06:17:12.675Z,1005.08
2018-04-10T06:18:21.509Z,1005.08
2018-04-10T06:19:30.344Z,1005.08
2018-04-10T06:20:39.179Z,1005.06
2018-04-10T06:21:48.016Z,1005.07
2018-04-10T06:22:57.301Z,1005.07
2018-04-10T06:24:06.136Z,1005.08
2018-04-10T06:25:14.970Z,1005.07
2018-04-10T06:26:23.803Z,1005.08
2018-04-10T06:27:32.636Z,1005.07
2018-04-10T06:28:41.667Z,1005.11
2018-04-10T06:29:50.775Z,1005.07
2018-04-10T06:30:59.607Z,1005.06
2018-04-10T06:32:08.441Z,1005.07
2018-04-10T06:33:17.548Z,1005.05
2018-04-10T06:34:26.383Z,1005.07
2018-04-10T06:35:35.213Z,1005.01
2018-04-10T06:36:44.321Z,1005.05
2018-04-10T06:37:53.153Z,1005.03
2018-04-10T06:39:01.997Z,1005.1
2018-04-10T06:40:11.247Z,1005.07
2018-04-10T06:41:20.081Z,1005.04
2018-04-10T06:42:28.916Z,1005.07
2018-04-10T06:43:37.749Z,1005.11
2018-04-10T06:44:46.584Z,1005.08
2018-04-10T06:45:55.943Z,1005.13
2018-04-10T06:47:04.775Z,1005.14
2018-04-10T06:48:13.609Z,1005.12
2018-04-10T06:49:22.444Z,1005.12
2018-04-10T06:50:31.279Z,1005.18
2018-04-10T06:51:40.164Z,1005.19
2018-04-10T06:52:48.999Z,1005.21
2018-04-10T06:53:57.836Z,1005.16
2018-04-10T06:55:06.672Z,1005.22
2018-04-10T06:56:15.506Z,1005.19
2018-04-10T06:57:24.671Z,1005.23
2018-04-10T06:58:33.506Z,1005.2
2018-04-10T06:59:42.342Z,1005.2
2018-04-10T07:00:51.454Z,1005.23
2018-04-10T07:02:00.287Z,1005.25
2018-04-10T07:03:09.323Z,1005.29
2018-04-10T07:04:18.157Z,1005.25
2018-04-10T07:05:26.989Z,1005.25
2018-04-10T07:06:35.822Z,1005.31
2018-04-10T07:07:44.657Z,1005.35
2018-04-10T07:08:53.545Z,1005.32
2018-04-10T07:10:02.381Z,1005.32
2018-04-10T07:11:11.215Z,1005.32
2018-04-10T07:12:20.049Z,1005.35
2018-04-10T07:13:28.887Z,1005.29
2018-04-10T07:14:37.823Z,1005.34
2018-04-10T07:15:46.658Z,1005.32
2018-04-10T07:16:55.498Z,1005.35
2018-04-10T07:18:04.332Z,1005.28
2018-04-10T07:19:13.452Z,1005.3
2018-04-10T07:20:22.387Z,1005.37
2018-04-10T07:21:31.223Z,1005.38
2018-04-10T07:22:40.059Z,1005.41
2018-04-10T07:23:49.172Z,1005.4
2018-04-10T07:24:58.008Z,1005.41
2018-04-10T07:26:06.898Z,1005.39
2018-04-10T07:27:15.741Z,1005.4
2018-04-10T07:28:24.571Z,1005.43
2018-04-10T07:29:33.406Z,1005.47
2018-04-10T07:30:42.236Z,1005.44
2018-04-10T07:31:51.173Z,1005.5
2018-04-10T07:33:00.013Z,1005.56
2018-04-10T07:34:08.866Z,1005.48
2018-04-10T07:35:17.685Z,1005.49
2018-04-10T07:36:26.532Z,1005.49
2018-04-10T07:37:35.791Z,1005.49
2018-04-10T07:38:44.627Z,1005.5
2018-04-10T07:39:53.464Z,1005.54
2018-04-10T07:41:02.351Z,1005.58
2018-04-10T07:42:11.188Z,1005.53
2018-04-10T07:43:20.500Z,1005.53
2018-04-10T07:44:29.334Z,1005.52
2018-04-10T07:45:38.441Z,1005.56
2018-04-10T07:46:47.281Z,1005.57
2018-04-10T07:47:56.391Z,1005.61
2018-04-10T07:49:05.375Z,1005.59
2018-04-10T07:50:14.212Z,1005.57
2018-04-10T07:51:23.086Z,1005.59
2018-04-10T07:52:31.888Z,1005.63
2018-04-10T07:53:40.733Z,1005.61
2018-04-10T07:54:49.614Z,1005.59
2018-04-10T07:55:58.451Z,1005.59
2018-04-10T07:57:07.562Z,1005.62
2018-04-10T07:58:16.396Z,1005.6
2018-04-10T07:59:25.233Z,1005.65
2018-04-10T08:00:34.122Z,1005.64
2018-04-10T08:01:42.955Z,1005.64
2018-04-10T08:02:51.792Z,1005.65
2018-04-10T08:04:00.629Z,1005.66
2018-04-10T08:05:09.467Z,1005.6
2018-04-10T08:06:18.406Z,1005.63
2018-04-10T08:07:27.514Z,1005.59
2018-04-10T08:08:36.350Z,1005.61
2018-04-10T08:09:45.184Z,1005.65
2018-04-10T08:10:54.025Z,1005.63
2018-04-10T08:12:03.062Z,1005.65
2018-04-10T08:13:11.906Z,1005.64
2018-04-10T08:14:20.742Z,1005.62
2018-04-10T08:15:29.579Z,1005.59
2018-04-10T08:16:38.415Z,1005.61
2018-04-10T08:17:47.456Z,1005.64
2018-04-10T08:18:56.293Z,1005.63
2018-04-10T08:20:05.131Z,1005.67
2018-04-10T08:21:14.244Z,1005.69
2018-04-10T08:22:23.082Z,1005.68
2018-04-10T08:23:32.068Z,1005.71
2018-04-10T08:24:40.907Z,1005.69
2018-04-10T08:25:50.293Z,1005.7
2018-04-10T08:26:59.409Z,1005.69
2018-04-10T08:28:08.247Z,1005.71
2018-04-10T08:29:17.235Z,1005.7
2018-04-10T08:30:26.073Z,1005.75
2018-04-10T08:31:35.184Z,1005.7
2018-04-10T08:32:44.023Z,1005.71
2018-04-10T08:33:52.862Z,1005.7
2018-04-10T08:35:01.751Z,1005.72
2018-04-10T08:36:10.589Z,1005.68
2018-04-10T08:37:19.426Z,1005.68
2018-04-10T08:38:28.265Z,1005.72
2018-04-10T08:39:37.099Z,1005.7
2018-04-10T08:40:46.088Z,1005.73
2018-04-10T08:41:54.925Z,1005.72
2018-04-10T08:43:03.761Z,1005.69
2018-04-10T08:44:12.601Z,1005.7
2018-04-10T08:45:21.441Z,1005.71
2018-04-10T08:46:30.326Z,1005.71
2018-04-10T08:47:39.162Z,1005.75
2018-04-10T08:48:48.007Z,1005.67
2018-04-10T08:49:56.840Z,1005.69
2018-04-10T08:51:05.950Z,1005.73
2018-04-10T08:52:15.263Z,1005.67
2018-04-10T08:53:24.098Z,1005.65
2018-04-10T08:54:32.936Z,1005.66
2018-04-10T08:55:41.772Z,1005.67
2018-04-10T08:56:50.616Z,1005.68
2018-04-10T08:57:59.655Z,1005.69
2018-04-10T08:59:08.493Z,1005.68
2018-04-10T09:00:17.608Z,1005.68
2018-04-10T09:01:26.445Z,1005.69
2018-04-10T09:02:35.281Z,1005.69
2018-04-10T09:03:44.269Z,1005.73
2018-04-10T09:04:53.382Z,1005.73
2018-04-10T09:06:02.219Z,1005.71
2018-04-10T09:07:11.059Z,1005.7
2018-04-10T09:08:19.896Z,1005.71
2018-04-10T09:09:29.167Z,1005.68
2018-04-10T09:10:38.277Z,1005.69
2018-04-10T09:11:47.113Z,1005.67
2018-04-10T09:12:55.950Z,1005.72
2018-04-10T09:14:04.834Z,1005.72
2018-04-10T09:15:13.820Z,1005.7
2018-04-10T09:16:22.935Z,1005.69
2018-04-10T09:17:31.772Z,1005.62
2018-04-10T09:18:40.892Z,1005.69
2018-04-10T09:19:49.731Z,1005.63
2018-04-10T09:20:58.617Z,1005.61
2018-04-10T09:22:07.453Z,1005.61
2018-04-10T09:23:16.287Z,1005.59
2018-04-10T09:24:25.124Z,1005.64
2018-04-10T09:25:33.963Z,1005.68
2018-04-10T09:26:42.800Z,1005.65
2018-04-10T09:27:51.639Z,1005.62
2018-04-10T09:29:00.752Z,1005.71
2018-04-10T09:30:09.591Z,1005.65
2018-04-10T09:31:18.425Z,1005.66
2018-04-10T09:32:27.263Z,1005.65
2018-04-10T09:33:36.101Z,1005.64
2018-04-10T09:34:45.218Z,1005.55
2018-04-10T09:35:54.089Z,1005.58
2018-04-10T09:37:02.892Z,1005.6
2018-04-10T09:38:12.159Z,1005.57
2018-04-10T09:39:20.995Z,1005.58
2018-04-10T09:40:29.835Z,1005.59
2018-04-10T09:41:38.677Z,1005.54
2018-04-10T09:42:47.513Z,1005.57
2018-04-10T09:43:56.603Z,1005.56
2018-04-10T09:45:05.444Z,1005.59
2018-04-10T09:46:14.284Z,1005.56
2018-04-10T09:47:23.122Z,1005.52
2018-04-10T09:48:31.960Z,1005.5
2018-04-10T09:49:40.951Z,1005.48
2018-04-10T09:50:49.788Z,1005.5
2018-04-10T09:51:58.902Z,1005.54
2018-04-10T09:53:08.011Z,1005.5
2018-04-10T09:54:16.850Z,1005.54
2018-04-10T09:55:25.998Z,1005.49
2018-04-10T09:56:34.836Z,1005.53
2018-04-10T09:57:43.680Z,1005.59
2018-04-10T09:58:52.516Z,1005.5
2018-04-10T10:00:01.354Z,1005.54
2018-04-10T10:01:10.617Z,1005.56
2018-04-10T10:02:19.729Z,1005.52
2018-04-10T10:03:28.568Z,1005.51
2018-04-10T10:04:37.958Z,1005.5
2018-04-10T10:05:46.795Z,1005.49
2018-04-10T10:06:55.835Z,1005.53
2018-04-10T10:08:04.946Z,1005.49
2018-04-10T10:09:14.063Z,1005.52
2018-04-10T10:10:22.896Z,1005.51
2018-04-10T10:11:31.736Z,1005.48
2018-04-10T10:12:40.591Z,1005.49
2018-04-10T10:13:49.418Z,1005.48
2018-04-10T10:14:58.263Z,1005.47
2018-04-10T10:16:07.371Z,1005.4
2018-04-10T10:17:16.211Z,1005.44
2018-04-10T10:18:25.046Z,1005.4
2018-04-10T10:19:33.884Z,1005.43
2018-04-10T10:20:42.722Z,1005.43
2018-04-10T10:21:51.560Z,1005.41
2018-04-10T10:23:00.398Z,1005.4
2018-04-10T10:24:09.337Z,1005.36
2018-04-10T10:25:18.173Z,1005.38
2018-04-10T10:26:27.294Z,1005.35
2018-04-10T10:27:36.133Z,1005.37
2018-04-10T10:28:44.971Z,1005.33
2018-04-10T10:29:54.286Z,1005.39
2018-04-10T10:31:03.126Z,1005.37
2018-04-10T10:32:11.965Z,1005.34
2018-04-10T10:33:20.805Z,1005.38
2018-04-10T10:34:29.643Z,1005.42
2018-04-10T10:35:38.532Z,1005.29
2018-04-10T10:36:47.647Z,1005.31
2018-04-10T10:37:56.485Z,1005.35
2018-04-10T10:39:05.612Z,1005.3
2018-04-10T10:40:14.446Z,1005.34
2018-04-10T10:41:23.384Z,1005.29
2018-04-10T10:42:32.220Z,1005.29
2018-04-10T10:43:41.061Z,1005.33
2018-04-10T10:44:50.184Z,1005.37
2018-04-10T10:45:59.021Z,1005.36
2018-04-10T10:47:08.062Z,1005.43
2018-04-10T10:48:16.897Z,1005.47
2018-04-10T10:49:25.764Z,1005.49
2018-04-10T10:50:34.575Z,1005.45
2018-04-10T10:51:43.689Z,1005.45
2018-04-10T10:52:52.779Z,1005.49
2018-04-10T10:54:01.619Z,1005.5
2018-04-10T10:55:10.458Z,1005.51
2018-04-10T10:56:19.295Z,1005.44
2018-04-10T10:57:28.136Z,1005.44
2018-04-10T10:58:37.029Z,1005.43
2018-04-10T10:59:46.141Z,1005.44
2018-04-10T11:00:54.982Z,1005.45
2018-04-10T11:02:03.822Z,1005.43
2018-04-10T11:03:12.662Z,1005.45
2018-04-10T11:04:21.654Z,1005.42
2018-04-10T11:05:30.492Z,1005.41
2018-04-10T11:06:39.332Z,1005.43
2018-04-10T11:07:48.177Z,1005.42
2018-04-10T11:08:57.012Z,1005.43
2018-04-10T11:10:06.104Z,1005.44
2018-04-10T11:11:14.943Z,1005.36
2018-04-10T11:12:23.783Z,1005.39
2018-04-10T11:13:32.624Z,1005.36
2018-04-10T11:14:41.465Z,1005.34
2018-04-10T11:15:50.556Z,1005.35
2018-04-10T11:16:59.399Z,1005.32
2018-04-10T11:18:08.241Z,1005.39
2018-04-10T11:19:17.080Z,1005.39
2018-04-10T11:20:25.921Z,1005.39
2018-04-10T11:21:34.762Z,1005.31
2018-04-10T11:22:43.599Z,1005.32
2018-04-10T11:23:52.719Z,1005.34
2018-04-10T11:25:01.564Z,1005.33
2018-04-10T11:26:10.681Z,1005.38
2018-04-10T11:27:19.671Z,1005.38
2018-04-10T11:28:28.510Z,1005.39
2018-04-10T11:29:37.352Z,1005.44
2018-04-10T11:30:46.478Z,1005.41
2018-04-10T11:31:55.872Z,1005.44
2018-04-10T11:33:04.963Z,1005.39
2018-04-10T11:34:13.808Z,1005.39
2018-04-10T11:35:22.922Z,1005.4
2018-04-10T11:36:32.157Z,1005.34
2018-04-10T11:37:41.034Z,1005.45
2018-04-10T11:38:50.054Z,1005.34
2018-04-10T11:39:59.392Z,1005.37
2018-04-10T11:41:08.509Z,1005.36
2018-04-10T11:42:17.345Z,1005.36
2018-04-10T11:43:26.186Z,1005.37
2018-04-10T11:44:35.324Z,1005.34
2018-04-10T11:45:44.173Z,1005.39
2018-04-10T11:46:53.020Z,1005.37
2018-04-10T11:48:02.139Z,1005.36
2018-04-10T11:49:10.978Z,1005.36
2018-04-10T11:50:19.969Z,1005.41
2018-04-10T11:51:28.819Z,1005.33
2018-04-10T11:52:37.666Z,1005.31
2018-04-10T11:53:46.542Z,1005.29
2018-04-10T11:54:55.576Z,1005.32
2018-04-10T11:56:04.466Z,1005.3
2018-04-10T11:57:13.307Z,1005.3
2018-04-10T11:58:22.149Z,1005.32
2018-04-10T11:59:31.264Z,1005.3
2018-04-10T12:00:40.107Z,1005.29
2018-04-10T12:01:49.089Z,1005.35
2018-04-10T12:02:58.269Z,1005.37
2018-04-10T12:04:07.106Z,1005.33
2018-04-10T12:05:15.963Z,1005.35
2018-04-10T12:06:24.914Z,1005.33
2018-04-10T12:07:33.858Z,1005.29
2018-04-10T12:08:42.701Z,1005.32
2018-04-10T12:09:51.546Z,1005.34
2018-04-10T12:11:00.392Z,1005.27
2018-04-10T12:12:09.535Z,1005.28
2018-04-10T12:13:18.504Z,1005.34
2018-04-10T12:14:27.348Z,1005.36
2018-04-10T12:15:36.199Z,1005.36
2018-04-10T12:16:45.045Z,1005.39
2018-04-10T12:17:53.890Z,1005.36
2018-04-10T12:19:02.836Z,1005.4
2018-04-10T12:20:11.694Z,1005.38
2018-04-10T12:21:20.547Z,1005.37
2018-04-10T12:22:29.389Z,1005.34
2018-04-10T12:23:38.237Z,1005.32
2018-04-10T12:24:47.406Z,1005.28
2018-04-10T12:25:56.254Z,1005.25
2018-04-10T12:27:05.100Z,1005.27
2018-04-10T12:28:13.948Z,1005.26
2018-04-10T12:29:22.793Z,1005.31
2018-04-10T12:30:31.890Z,1005.3
2018-04-10T12:31:40.738Z,1005.27
2018-04-10T12:32:49.586Z,1005.29
2018-04-10T12:33:58.713Z,1005.26
2018-04-10T12:35:07.560Z,1005.29
2018-04-10T12:36:16.512Z,1005.35
2018-04-10T12:37:25.358Z,1005.35
2018-04-10T12:38:34.209Z,1005.32
2018-04-10T12:39:43.058Z,1005.36
2018-04-10T12:40:51.903Z,1005.37
2018-04-10T12:42:00.804Z,1005.33
2018-04-10T12:43:09.647Z,1005.29
2018-04-10T12:44:18.494Z,1005.27
2018-04-10T12:45:27.343Z,1005.28
2018-04-10T12:46:36.190Z,1005.2
2018-04-10T12:47:45.140Z,1005.21
2018-04-10T12:48:54.360Z,1005.27
2018-04-10T12:50:03.212Z,1005.31
2018-04-10T12:51:12.062Z,1005.26
2018-04-10T12:52:20.916Z,1005.28
2018-04-10T12:53:29.914Z,1005.25
2018-04-10T12:54:38.762Z,1005.25
2018-04-10T12:55:47.613Z,1005.23
2018-04-10T12:56:56.459Z,1005.25
2018-04-10T12:58:05.307Z,1005.25
2018-04-10T12:59:14.253Z,1005.26
2018-04-10T13:00:23.102Z,1005.28
2018-04-10T13:01:31.954Z,1005.27
2018-04-10T13:02:40.802Z,1005.28
2018-04-10T13:03:49.925Z,1005.28
2018-04-10T13:04:58.874Z,1005.25
2018-04-10T13:06:07.720Z,1005.27
2018-04-10T13:07:16.563Z,1005.31
2018-04-10T13:08:25.408Z,1005.3
2018-04-10T13:09:34.527Z,1005.24
2018-04-10T13:10:43.525Z,1005.23
2018-04-10T13:11:52.372Z,1005.25
2018-04-10T13:13:01.219Z,1005.22
2018-04-10T13:14:10.067Z,1005.24
2018-04-10T13:15:19.471Z,1005.22
2018-04-10T13:16:28.468Z,1005.24
2018-04-10T13:17:37.322Z,1005.24
2018-04-10T13:18:46.172Z,1005.26
2018-04-10T13:19:55.032Z,1005.25
2018-04-10T13:21:03.884Z,1005.35
2018-04-10T13:22:12.830Z,1005.31
2018-04-10T13:23:21.678Z,1005.37
2018-04-10T13:24:30.525Z,1005.37
2018-04-10T13:25:39.372Z,1005.28
2018-04-10T13:26:48.219Z,1005.28
2018-04-10T13:27:57.219Z,1005.23
2018-04-10T13:29:06.068Z,1005.24
2018-04-10T13:30:14.913Z,1005.2
2018-04-10T13:31:24.045Z,1005.31
2018-04-10T13:32:32.957Z,1005.2
2018-04-10T13:33:41.819Z,1005.27
2018-04-10T13:34:50.714Z,1005.31
2018-04-10T13:35:59.577Z,1005.28
2018-04-10T13:37:08.466Z,1005.34
2018-04-10T13:38:17.318Z,1005.37
2018-04-10T13:39:26.265Z,1005.39
2018-04-10T13:40:35.112Z,1005.44
2018-04-10T13:41:43.965Z,1005.49
2018-04-10T13:42:52.812Z,1005.57
2018-04-10T13:44:01.663Z,1005.58
2018-04-10T13:45:10.562Z,1006.04
2018-04-10T13:46:19.411Z,1005.84
2018-04-10T13:47:28.260Z,1005.56
2018-04-10T13:48:37.110Z,1005.57
2018-04-10T13:49:45.962Z,1005.64
2018-04-10T13:50:54.858Z,1005.77
2018-04-10T13:52:03.706Z,1005.78
2018-04-10T13:53:12.555Z,1005.55
2018-04-10T13:54:21.440Z,1005.66
2018-04-10T13:55:30.623Z,1005.75
2018-04-10T13:56:39.575Z,1005.74
2018-04-10T13:57:48.429Z,1005.64